Time;durP1;ratioP1;P1;durP2;ratioP2;P2;SDS_P1;SDS_P2;PMS_P1;PMS_P2;Temp;Humidity;BMP_temperature;BMP_pressure;BME280_temperature;BME280_humidity;BME280_pressure;Samples;Min_cycle;Max_cycle;Signal;HPM_P1;HPM_P2
2022/04/17 00:01:58;;;;;;;8.63;8.07;;;;;;;;;;5047837;28;20201;-44
2022/04/17 00:04:23;;;;;;;8.05;7.47;;;;;;;;;;5048414;28;20170;-45
2022/04/17 00:06:48;;;;;;;9.02;8.43;;;;;;;;;;5048727;28;20036;-46
2022/04/17 00:09:14;;;;;;;7.95;7.35;;;;;;;;;;5045881;28;20036;-46
2022/04/17 00:11:42;;;;;;;6.95;6.45;;;;;;;;;;5048202;28;20033;-45
2022/04/17 00:14:10;;;;;;;8.55;7.97;;;;;;;;;;5048930;28;20611;-46
2022/04/17 00:16:36;;;;;;;6.93;6.43;;;;;;;;;;5046930;28;20124;-45
2022/04/17 00:19:01;;;;;;;11.65;6.93;;;;;;;;;;5045443;28;20480;-45
2022/04/17 00:21:27;;;;;;;6.65;6.18;;;;;;;;;;5046736;28;20021;-45
2022/04/17 00:23:52;;;;;;;6.88;6.38;;;;;;;;;;5047804;28;20021;-47
2022/04/17 00:26:17;;;;;;;7.40;6.80;;;;;;;;;;5048288;28;20507;-46
2022/04/17 00:28:43;;;;;;;7.20;6.70;;;;;;;;;;5045064;28;20052;-47
2022/04/17 00:31:08;;;;;;;5.63;5.22;;;;;;;;;;5047910;28;20096;-45
2022/04/17 00:33:34;;;;;;;6.10;5.60;;;;;;;;;;5047611;28;20721;-45
2022/04/17 00:35:59;;;;;;;7.40;6.90;;;;;;;;;;5047524;28;20654;-44
2022/04/17 00:38:25;;;;;;;6.43;5.97;;;;;;;;;;5046646;28;20025;-45
2022/04/17 00:40:54;;;;;;;6.60;6.10;;;;;;;;;;5054778;28;20017;-46
2022/04/17 00:43:25;;;;;;;7.00;6.50;;;;;;;;;;5047860;28;20033;-46
2022/04/17 00:45:51;;;;;;;;;;;;;;;;;;5048115;28;20030;-45
2022/04/17 00:48:17;;;;;;;6.57;6.07;;;;;;;;;;5060300;28;19927;-46
2022/04/17 00:50:43;;;;;;;6.20;5.80;;;;;;;;;;5046022;28;20037;-44
2022/04/17 00:53:08;;;;;;;7.05;6.55;;;;;;;;;;5046678;28;20167;-46
2022/04/17 00:55:34;;;;;;;6.15;5.75;;;;;;;;;;5047187;28;20052;-45
2022/04/17 00:58:00;;;;;;;7.75;7.25;;;;;;;;;;5045166;28;20031;-46
2022/04/17 01:00:26;;;;;;;7.40;6.90;;;;;;;;;;5046976;28;20547;-47
2022/04/17 01:02:51;;;;;;;5.90;5.40;;;;;;;;;;5047392;28;20121;-45
2022/04/17 01:05:18;;;;;;;6.38;5.93;;;;;;;;;;5047383;28;20024;-46
2022/04/17 01:07:44;;;;;;;6.15;5.75;;;;;;;;;;5046236;28;20033;-45
2022/04/17 01:10:10;;;;;;;8.50;7.97;;;;;;;;;;5059340;28;20033;-45
2022/04/17 01:12:37;;;;;;;8.75;8.15;;;;;;;;;;5046040;28;20052;-45
2022/04/17 01:15:03;;;;;;;8.43;7.93;;;;;;;;;;5045980;28;20546;-45
2022/04/17 01:17:28;;;;;;;9.43;8.82;;;;;;;;;;5046524;28;20056;-46
2022/04/17 01:19:54;;;;;;;8.30;7.72;;;;;;;;;;5043338;28;20068;-45
2022/04/17 01:22:19;;;;;;;7.70;7.10;;;;;;;;;;5046727;28;20078;-45
2022/04/17 01:27:30;;;;;;;7.63;7.13;;;;;;;;;;5046877;28;20037;-46
2022/04/17 01:29:56;;;;;;;7.13;6.63;;;;;;;;;;5044953;28;20086;-45
2022/04/17 01:32:22;;;;;;;9.50;8.90;;;;;;;;;;5046519;28;20037;-49
2022/04/17 01:34:48;;;;;;;9.60;8.90;;;;;;;;;;5047185;28;20033;-45
2022/04/17 01:37:16;;;;;;;9.07;8.48;;;;;;;;;;5047486;28;20025;-45
2022/04/17 01:39:42;;;;;;;9.25;8.65;;;;;;;;;;5044054;28;20086;-50
2022/04/17 01:42:07;;;;;;;8.38;7.78;;;;;;;;;;5047283;28;20519;-46
2022/04/17 01:44:33;;;;;;;9.00;8.40;;;;;;;;;;5047049;28;20136;-45
2022/04/17 01:47:01;;;;;;;10.07;9.40;;;;;;;;;;5046874;28;20032;-45
2022/04/17 01:49:26;;;;;;;9.80;9.20;;;;;;;;;;5045022;28;20611;-45
2022/04/17 01:51:52;;;;;;;9.70;9.10;;;;;;;;;;5047043;28;20039;-45
2022/04/17 01:54:19;;;;;;;8.85;8.30;;;;;;;;;;5046895;28;20084;-45
2022/04/17 01:56:48;;;;;;;9.82;9.23;;;;;;;;;;5040270;28;20739;-46
2022/04/17 01:59:16;;;;;;;9.52;8.93;;;;;;;;;;5043507;28;20067;-46
2022/04/17 02:01:42;;;;;;;10.98;10.27;;;;;;;;;;5045468;28;20035;-45
2022/04/17 02:04:09;;;;;;;9.38;8.77;;;;;;;;;;5045832;28;20406;-46
2022/04/17 02:06:35;;;;;;;8.75;8.20;;;;;;;;;;5045512;28;20400;-45
2022/04/17 02:09:02;;;;;;;10.20;9.60;;;;;;;;;;5046496;28;20044;-46
2022/04/17 02:11:28;;;;;;;10.52;9.90;;;;;;;;;;5046437;28;20039;-45
2022/04/17 02:13:54;;;;;;;8.68;8.15;;;;;;;;;;5045419;28;20025;-46
2022/04/17 02:16:20;;;;;;;10.13;9.52;;;;;;;;;;5046004;28;20048;-45
2022/04/17 02:18:46;;;;;;;16.52;10.30;;;;;;;;;;5043297;28;20441;-45
2022/04/17 02:21:13;;;;;;;10.10;9.48;;;;;;;;;;5046282;28;20909;-45
2022/04/17 02:23:40;;;;;;;9.38;8.77;;;;;;;;;;5046529;28;20029;-45
2022/04/17 02:26:06;;;;;;;11.15;10.35;;;;;;;;;;5045280;28;20043;-45
2022/04/17 02:28:34;;;;;;;10.55;9.95;;;;;;;;;;5044773;28;20032;-46
2022/04/17 02:31:01;;;;;;;9.73;8.93;;;;;;;;;;5035770;28;20482;-45
2022/04/17 02:33:27;;;;;;;9.77;9.18;;;;;;;;;;5041495;28;20098;-45
2022/04/17 02:35:53;;;;;;;10.95;10.25;;;;;;;;;;5046427;28;20041;-45
2022/04/17 02:38:18;;;;;;;10.82;10.13;;;;;;;;;;5044778;28;20056;-46
2022/04/17 02:40:44;;;;;;;9.82;9.23;;;;;;;;;;5044307;28;20095;-45
2022/04/17 02:43:09;;;;;;;10.90;10.20;;;;;;;;;;5045048;28;20078;-45
2022/04/17 02:45:34;;;;;;;10.88;10.23;;;;;;;;;;5045983;28;20525;-43
2022/04/17 02:48:00;;;;;;;11.10;10.40;;;;;;;;;;5044465;28;20029;-45
2022/04/17 02:50:25;;;;;;;11.05;10.25;;;;;;;;;;5045045;28;20067;-44
2022/04/17 02:52:55;;;;;;;11.20;10.50;;;;;;;;;;5046058;28;20044;-44
2022/04/17 02:55:21;;;;;;;11.05;10.35;;;;;;;;;;5027485;28;20327;-44
2022/04/17 02:57:46;;;;;;;10.77;9.98;;;;;;;;;;5044313;28;20032;-45
2022/04/17 03:00:12;;;;;;;11.38;10.68;;;;;;;;;;5045018;28;20139;-45
2022/04/17 03:08:00;;;;;;;9.45;8.85;;;;;;;;;;5045119;28;20512;-45
2022/04/17 03:10:25;;;;;;;9.85;9.25;;;;;;;;;;5045468;28;20039;-45
2022/04/17 03:12:51;;;;;;;9.52;8.93;;;;;;;;;;5043632;28;20097;-45
2022/04/17 03:15:17;;;;;;;6.95;6.45;;;;;;;;;;5045069;28;20028;-46
2022/04/17 03:17:42;;;;;;;7.97;7.47;;;;;;;;;;5044929;28;20630;-44
2022/04/17 03:20:08;;;;;;;6.80;6.30;;;;;;;;;;5044381;28;20037;-46
2022/04/17 03:22:34;;;;;;;7.93;7.43;;;;;;;;;;5046305;28;20115;-44
2022/04/17 03:25:01;;;;;;;7.15;6.65;;;;;;;;;;5046399;28;20116;-45
2022/04/17 03:27:28;;;;;;;6.97;6.47;;;;;;;;;;5046181;28;20407;-46
2022/04/17 03:29:54;;;;;;;7.47;6.97;;;;;;;;;;5043432;28;20542;-45
2022/04/17 03:32:20;;;;;;;6.18;5.70;;;;;;;;;;5044829;28;20510;-45
2022/04/17 03:34:45;;;;;;;5.55;5.05;;;;;;;;;;5045336;28;20093;-44
2022/04/17 03:37:10;;;;;;;6.75;6.25;;;;;;;;;;5046231;28;20090;-47
2022/04/17 03:39:36;;;;;;;5.82;5.43;;;;;;;;;;5039084;28;20127;-45
2022/04/17 03:42:01;;;;;;;5.65;5.25;;;;;;;;;;5045718;28;20040;-46
2022/04/17 03:44:26;;;;;;;5.28;4.88;;;;;;;;;;5045803;28;20025;-45
2022/04/17 03:46:52;;;;;;;5.60;5.20;;;;;;;;;;5037568;28;20036;-44
2022/04/17 03:49:18;;;;;;;6.35;5.85;;;;;;;;;;5043026;28;20527;-45
2022/04/17 03:51:43;;;;;;;7.07;5.25;;;;;;;;;;5046075;28;20098;-45
2022/04/17 03:54:09;;;;;;;5.20;4.80;;;;;;;;;;5045736;28;20071;-45
2022/04/17 03:56:34;;;;;;;5.60;5.20;;;;;;;;;;5045705;28;20132;-46
2022/04/17 03:59:01;;;;;;;6.10;5.60;;;;;;;;;;5042383;28;20090;-46
2022/04/17 04:01:27;;;;;;;7.72;7.18;;;;;;;;;;5043407;28;20021;-45
2022/04/17 04:03:54;;;;;;;6.22;5.75;;;;;;;;;;5045741;28;20037;-45
2022/04/17 04:06:20;;;;;;;6.75;6.25;;;;;;;;;;5046248;28;20049;-45
2022/04/17 04:08:48;;;;;;;6.40;5.97;;;;;;;;;;5044525;28;20035;-46
2022/04/17 04:11:14;;;;;;;6.53;6.03;;;;;;;;;;5044158;28;20029;-45
2022/04/17 04:13:39;;;;;;;7.00;6.50;;;;;;;;;;5045901;28;20025;-45
2022/04/17 04:16:05;;;;;;;7.53;7.03;;;;;;;;;;5045549;28;20102;-46
2022/04/17 04:18:30;;;;;;;6.88;6.38;;;;;;;;;;5042691;28;20703;-48
2022/04/17 04:20:55;;;;;;;6.45;6.00;;;;;;;;;;5039165;28;20060;-46
2022/04/17 04:23:22;;;;;;;9.43;8.82;;;;;;;;;;5040149;28;20044;-47
2022/04/17 04:25:47;;;;;;;10.32;9.73;;;;;;;;;;5043667;28;20528;-49
2022/04/17 04:30:57;;;;;;;10.20;9.60;;;;;;;;;;5046413;28;20029;-44
2022/04/17 04:33:22;;;;;;;11.50;10.80;;;;;;;;;;5043070;28;20062;-46
2022/04/17 04:35:47;;;;;;;11.85;11.15;;;;;;;;;;5049582;28;20037;-45
2022/04/17 04:38:13;;;;;;;11.40;10.70;;;;;;;;;;5048187;28;20087;-49
2022/04/17 04:40:38;;;;;;;11.25;10.55;;;;;;;;;;5045559;28;20048;-45
2022/04/17 04:43:04;;;;;;;11.95;11.25;;;;;;;;;;5045546;28;20039;-46
2022/04/17 04:48:14;;;;;;;10.73;9.50;;;;;;;;;;5044029;28;20040;-47
2022/04/17 04:50:40;;;;;;;10.85;10.20;;;;;;;;;;5045273;28;20120;-47
2022/04/17 04:53:05;;;;;;;11.60;10.90;;;;;;;;;;5063056;28;20465;-49
2022/04/17 04:55:31;;;;;;;11.40;10.70;;;;;;;;;;5047908;28;20021;-45
2022/04/17 04:57:56;;;;;;;11.05;10.35;;;;;;;;;;5048012;28;20041;-46
2022/04/17 05:00:22;;;;;;;11.02;10.32;;;;;;;;;;5047351;28;20057;-47
2022/04/17 05:02:47;;;;;;;9.85;9.15;;;;;;;;;;5048579;28;20055;-46
2022/04/17 05:05:13;;;;;;;11.48;10.77;;;;;;;;;;5048515;28;20080;-47
2022/04/17 05:07:39;;;;;;;11.40;10.70;;;;;;;;;;5048001;28;20112;-46
2022/04/17 05:10:06;;;;;;;10.68;10.00;;;;;;;;;;5046133;28;20032;-45
2022/04/17 05:12:31;;;;;;;10.13;9.52;;;;;;;;;;5048003;28;20039;-44
2022/04/17 05:14:57;;;;;;;9.90;9.30;;;;;;;;;;5048632;28;20029;-48
2022/04/17 05:17:23;;;;;;;9.98;9.38;;;;;;;;;;5047052;28;20186;-46
2022/04/17 05:19:50;;;;;;;9.90;9.30;;;;;;;;;;5042217;28;20112;-45
2022/04/17 05:22:16;;;;;;;9.65;9.05;;;;;;;;;;5043524;28;20465;-45
2022/04/17 05:24:46;;;;;;;10.15;9.45;;;;;;;;;;5043076;28;20041;-46
2022/04/17 05:27:12;;;;;;;9.43;8.70;;;;;;;;;;5043015;28;20115;-45
2022/04/17 05:29:38;;;;;;;7.32;6.82;;;;;;;;;;5043015;28;20029;-48
2022/04/17 05:32:04;;;;;;;8.40;7.90;;;;;;;;;;5047333;28;20090;-44
2022/04/17 05:34:30;;;;;;;6.82;6.32;;;;;;;;;;5043373;28;20033;-45
2022/04/17 05:36:56;;;;;;;7.95;7.45;;;;;;;;;;5044307;28;20068;-45
2022/04/17 05:39:22;;;;;;;8.15;7.57;;;;;;;;;;5044732;28;20171;-46
2022/04/17 05:41:48;;;;;;;7.10;6.60;;;;;;;;;;5041916;28;20037;-46
2022/04/17 05:44:14;;;;;;;7.75;7.05;;;;;;;;;;5045009;28;20036;-45
2022/04/17 05:46:41;;;;;;;7.38;6.88;;;;;;;;;;5044586;28;20067;-46
2022/04/17 05:49:06;;;;;;;7.05;6.55;;;;;;;;;;5046163;28;20103;-45
2022/04/17 05:51:34;;;;;;;7.10;6.60;;;;;;;;;;5040373;28;20120;-47
2022/04/17 05:54:00;;;;;;;6.78;6.28;;;;;;;;;;5041179;28;20028;-45
2022/04/17 05:56:27;;;;;;;8.05;7.50;;;;;;;;;;5043250;28;20036;-49
2022/04/17 05:58:52;;;;;;;6.78;6.25;;;;;;;;;;5046422;28;20029;-50
2022/04/17 06:01:18;;;;;;;5.90;5.50;;;;;;;;;;5045921;28;20029;-53
2022/04/17 06:03:43;;;;;;;5.55;5.15;;;;;;;;;;5046651;28;20358;-52
2022/04/17 06:06:09;;;;;;;6.35;5.88;;;;;;;;;;5046305;28;20025;-52
2022/04/17 06:08:34;;;;;;;6.28;5.85;;;;;;;;;;5047251;28;20040;-49
2022/04/17 06:11:01;;;;;;;6.55;5.85;;;;;;;;;;5047627;28;20044;-53
2022/04/17 06:13:26;;;;;;;6.75;6.15;;;;;;;;;;5045923;28;20025;-54
2022/04/17 06:15:52;;;;;;;7.38;6.88;;;;;;;;;;5046641;28;20040;-54
2022/04/17 06:18:17;;;;;;;6.65;6.15;;;;;;;;;;5044140;28;20071;-52
2022/04/17 06:20:42;;;;;;;5.40;4.97;;;;;;;;;;5043076;28;20111;-50
2022/04/17 06:23:08;;;;;;;7.45;6.95;;;;;;;;;;5042056;28;20524;-54
2022/04/17 06:25:33;;;;;;;6.78;6.28;;;;;;;;;;5039523;28;20744;-55
2022/04/17 06:27:59;;;;;;;7.60;7.10;;;;;;;;;;5043757;28;20044;-54
2022/04/17 06:30:24;;;;;;;6.70;6.20;;;;;;;;;;5045136;28;20112;-52
2022/04/17 06:32:50;;;;;;;8.20;7.70;;;;;;;;;;5046030;28;20098;-51
2022/04/17 06:35:16;;;;;;;8.05;7.45;;;;;;;;;;5047000;28;20517;-52
2022/04/17 06:37:49;;;;;;;10.05;9.45;;;;;;;;;;5046446;28;20036;-51
2022/04/17 06:40:16;;;;;;;9.55;8.95;;;;;;;;;;5045762;28;20108;-53
2022/04/17 06:42:42;;;;;;;9.02;8.43;;;;;;;;;;5042927;28;20028;-52
2022/04/17 06:45:08;;;;;;;8.48;7.95;;;;;;;;;;5046051;28;20071;-52
2022/04/17 06:47:33;;;;;;;7.35;6.85;;;;;;;;;;5045186;28;20103;-54
2022/04/17 06:49:58;;;;;;;7.43;6.93;;;;;;;;;;5045552;28;20458;-54
2022/04/17 06:52:24;;;;;;;6.20;5.75;;;;;;;;;;5042375;28;20751;-56
2022/04/17 06:54:49;;;;;;;5.80;5.40;;;;;;;;;;5042589;28;20021;-53
2022/04/17 06:57:15;;;;;;;6.25;5.82;;;;;;;;;;5046116;28;20020;-52
2022/04/17 06:59:40;;;;;;;7.07;6.50;;;;;;;;;;5046262;28;20033;-52
2022/04/17 07:02:06;;;;;;;5.55;5.15;;;;;;;;;;5038409;28;20036;-51
2022/04/17 07:04:31;;;;;;;5.85;5.45;;;;;;;;;;5045524;28;20044;-49
2022/04/17 07:06:56;;;;;;;5.65;5.25;;;;;;;;;;5045377;28;20029;-50
2022/04/17 07:09:22;;;;;;;5.90;5.50;;;;;;;;;;5046460;28;20021;-52
2022/04/17 07:11:47;;;;;;;5.68;5.25;;;;;;;;;;5043059;28;20522;-50
2022/04/17 07:14:14;;;;;;;5.47;5.07;;;;;;;;;;5041719;28;20065;-54
2022/04/17 07:16:41;;;;;;;6.57;4.90;;;;;;;;;;5045721;28;20710;-52
2022/04/17 07:19:07;;;;;;;4.20;3.90;;;;;;;;;;5045601;28;20074;-54
2022/04/17 07:21:32;;;;;;;4.78;4.38;;;;;;;;;;5042817;28;20500;-50
2022/04/17 07:23:58;;;;;;;4.80;4.40;;;;;;;;;;5044560;28;20029;-53
2022/04/17 07:26:23;;;;;;;5.70;5.30;;;;;;;;;;5046344;28;20032;-54
2022/04/17 07:28:49;;;;;;;5.70;5.30;;;;;;;;;;5045976;28;20111;-54
2022/04/17 07:31:14;;;;;;;5.93;5.53;;;;;;;;;;5042567;28;20166;-54
2022/04/17 07:33:40;;;;;;;5.82;5.32;;;;;;;;;;5044138;28;20029;-52
2022/04/17 07:36:05;;;;;;;8.35;7.85;;;;;;;;;;5044161;28;20503;-54
2022/04/17 07:38:30;;;;;;;7.28;6.78;;;;;;;;;;5046291;28;20044;-51
2022/04/17 07:40:56;;;;;;;6.85;6.35;;;;;;;;;;5044950;28;20510;-53
2022/04/17 07:43:22;;;;;;;6.47;6.03;;;;;;;;;;5045767;28;20032;-54
2022/04/17 07:45:47;;;;;;;7.72;7.22;;;;;;;;;;5046608;28;20037;-51
2022/04/17 07:48:13;;;;;;;8.07;7.57;;;;;;;;;;5040210;28;20051;-52
2022/04/17 07:50:38;;;;;;;8.02;7.53;;;;;;;;;;5042348;28;20033;-54
2022/04/17 07:53:04;;;;;;;7.85;7.35;;;;;;;;;;5043324;28;20051;-54
2022/04/17 07:55:29;;;;;;;13.15;12.35;;;;;;;;;;5045513;28;20052;-54
2022/04/17 07:58:08;;;;;;;9.55;8.95;;;;;;;;;;5046168;28;20044;-54
2022/04/17 08:00:44;;;;;;;14.05;13.25;;;;;;;;;;5044338;28;20033;-54
2022/04/17 08:05:55;;;;;;;17.40;16.40;;;;;;;;;;5049514;28;20029;-54
2022/04/17 08:08:20;;;;;;;26.88;25.45;;;;;;;;;;5049241;28;20094;-52
2022/04/17 08:10:46;;;;;;;34.70;32.90;;;;;;;;;;5048204;28;20060;-55
2022/04/17 08:13:12;;;;;;;41.28;39.17;;;;;;;;;;5049561;28;20040;-54
2022/04/17 08:15:37;;;;;;;38.92;36.90;;;;;;;;;;5049277;28;20028;-52
2022/04/17 08:18:02;;;;;;;39.20;37.20;;;;;;;;;;5047289;28;20028;-53
2022/04/17 08:20:28;;;;;;;39.03;37.03;;;;;;;;;;5049722;28;20044;-54
2022/04/17 08:22:53;;;;;;;36.90;35.00;;;;;;;;;;5049475;28;20155;-54
2022/04/17 08:25:19;;;;;;;47.63;45.22;;;;;;;;;;5049637;28;20029;-54
2022/04/17 08:27:52;;;;;;;48.78;46.28;;;;;;;;;;5040051;28;20033;-55
2022/04/17 08:30:25;;;;;;;51.45;48.85;;;;;;;;;;5048791;28;20111;-54
2022/04/17 08:32:51;;;;;;;50.90;48.33;;;;;;;;;;5048272;28;20033;-54
2022/04/17 08:35:17;;;;;;;51.70;49.08;;;;;;;;;;5049638;28;20101;-54
2022/04/17 08:37:45;;;;;;;49.40;46.90;;;;;;;;;;5049730;28;20635;-50
2022/04/17 08:40:12;;;;;;;48.47;46.00;;;;;;;;;;5049530;28;20057;-55
2022/04/17 08:42:39;;;;;;;53.00;50.28;;;;;;;;;;5048527;28;20039;-55
2022/04/17 08:45:07;;;;;;;41.95;39.83;;;;;;;;;;5049271;28;20025;-46
2022/04/17 08:47:34;;;;;;;56.63;52.00;;;;;;;;;;5048299;28;20647;-47
2022/04/17 08:49:59;;;;;;;45.80;43.47;;;;;;;;;;5046530;28;20033;-46
2022/04/17 08:52:26;;;;;;;44.90;42.60;;;;;;;;;;5046617;28;20033;-55
2022/04/17 08:54:53;;;;;;;45.10;42.83;;;;;;;;;;5049359;28;20033;-52
2022/04/17 08:57:20;;;;;;;53.60;50.75;;;;;;;;;;5047490;28;20082;-52
2022/04/17 08:59:45;;;;;;;53.03;50.28;;;;;;;;;;5064498;28;20470;-52
2022/04/17 09:02:11;;;;;;;44.63;42.35;;;;;;;;;;5046492;28;20036;-53
2022/04/17 09:04:38;;;;;;;48.38;45.88;;;;;;;;;;5048115;28;20036;-53
2022/04/17 09:07:10;;;;;;;37.00;35.00;;;;;;;;;;5048749;28;20033;-51
2022/04/17 09:09:53;;;;;;;19.95;18.85;;;;;;;;;;5048843;28;20056;-51
2022/04/17 09:12:26;;;;;;;17.20;16.20;;;;;;;;;;5047310;28;20108;-53
2022/04/17 09:14:55;;;;;;;11.05;10.35;;;;;;;;;;5048711;28;20370;-56
2022/04/17 09:17:28;;;;;;;11.38;10.68;;;;;;;;;;5047716;28;20641;-54
2022/04/17 09:19:53;;;;;;;12.05;11.35;;;;;;;;;;5047026;28;20187;-55
2022/04/17 09:22:19;;;;;;;11.52;10.82;;;;;;;;;;5047557;28;20033;-55
2022/04/17 09:24:44;;;;;;;7.18;6.68;;;;;;;;;;5048065;28;20501;-55
2022/04/17 09:27:11;;;;;;;7.15;6.65;;;;;;;;;;5047174;28;20659;-52
2022/04/17 09:29:38;;;;;;;8.68;8.07;;;;;;;;;;5048125;28;20036;-53
2022/04/17 09:32:04;;;;;;;8.18;7.68;;;;;;;;;;5047748;28;20045;-55
2022/04/17 09:34:47;;;;;;;8.38;7.88;;;;;;;;;;5047413;28;20444;-54
2022/04/17 09:37:17;;;;;;;8.20;7.60;;;;;;;;;;5047685;28;20040;-53
2022/04/17 09:39:43;;;;;;;8.40;7.90;;;;;;;;;;5045746;28;20031;-53
2022/04/17 09:42:09;;;;;;;6.88;6.22;;;;;;;;;;5041778;28;20029;-53
2022/04/17 09:44:47;;;;;;;6.55;6.13;;;;;;;;;;5041176;28;20454;-54
2022/04/17 09:47:20;;;;;;;6.60;5.55;;;;;;;;;;5041515;28;20063;-52
2022/04/17 09:49:50;;;;;;;8.23;7.72;;;;;;;;;;5047382;28;20083;-54
2022/04/17 09:52:16;;;;;;;6.95;6.45;;;;;;;;;;5044226;28;20029;-52
2022/04/17 09:54:42;;;;;;;6.15;5.75;;;;;;;;;;5047657;28;20093;-55
2022/04/17 09:57:08;;;;;;;6.80;6.30;;;;;;;;;;5047661;28;20407;-51
2022/04/17 09:59:34;;;;;;;5.78;5.38;;;;;;;;;;5046914;28;20045;-51
2022/04/17 10:02:00;;;;;;;8.18;7.68;;;;;;;;;;5047187;28;20025;-50
2022/04/17 10:04:26;;;;;;;8.00;7.50;;;;;;;;;;5045565;28;20021;-51
2022/04/17 10:06:59;;;;;;;9.52;8.93;;;;;;;;;;5050919;28;20033;-53
2022/04/17 10:09:25;;;;;;;13.23;12.43;;;;;;;;;;5047451;28;20029;-54
2022/04/17 10:11:51;;;;;;;11.85;11.15;;;;;;;;;;5040636;28;20168;-52
2022/04/17 10:14:18;;;;;;;18.75;17.75;;;;;;;;;;5044959;28;20032;-53
2022/04/17 10:16:46;;;;;;;15.18;14.30;;;;;;;;;;5047341;28;20020;-55
2022/04/17 10:19:17;;;;;;;18.30;17.13;;;;;;;;;;5050283;28;20520;-54
2022/04/17 10:21:45;;;;;;;16.90;15.90;;;;;;;;;;5047881;28;20541;-54
2022/04/17 10:24:13;;;;;;;12.05;11.35;;;;;;;;;;5047940;28;20032;-54
2022/04/17 10:26:41;;;;;;;11.88;11.07;;;;;;;;;;5045926;28;20532;-54
2022/04/17 10:29:13;;;;;;;17.65;16.65;;;;;;;;;;5047422;28;20033;-54
2022/04/17 10:32:17;;;;;;;17.05;16.10;;;;;;;;;;5045221;28;20048;-58
2022/04/17 10:35:04;;;;;;;20.63;19.20;;;;;;;;;;5048113;28;20041;-51
2022/04/17 10:37:43;;;;;;;21.17;20.05;;;;;;;;;;5047159;28;20033;-51
2022/04/17 10:40:12;;;;;;;21.58;20.38;;;;;;;;;;5047396;28;20347;-52
2022/04/17 10:42:56;;;;;;;19.83;18.73;;;;;;;;;;5047956;28;20040;-51
2022/04/17 10:45:22;;;;;;;18.20;17.20;;;;;;;;;;5047610;28;20059;-54
2022/04/17 10:48:07;;;;;;;19.42;18.35;;;;;;;;;;5046296;28;20112;-54
2022/04/17 10:50:48;;;;;;;14.07;13.27;;;;;;;;;;5046361;28;20033;-52
2022/04/17 10:53:30;;;;;;;12.95;12.15;;;;;;;;;;5045980;28;20041;-53
2022/04/17 10:56:06;;;;;;;11.30;10.60;;;;;;;;;;5044958;28;20025;-52
2022/04/17 10:58:44;;;;;;;11.40;10.70;;;;;;;;;;5045897;28;20040;-52
2022/04/17 11:01:10;;;;;;;10.90;10.20;;;;;;;;;;5046597;28;20048;-49
2022/04/17 11:03:36;;;;;;;11.70;10.88;;;;;;;;;;5045949;28;20075;-52
2022/04/17 11:06:33;;;;;;;10.02;9.38;;;;;;;;;;5038899;28;20461;-49
2022/04/17 11:09:13;;;;;;;10.15;9.55;;;;;;;;;;5046383;28;20164;-50
2022/04/17 11:11:40;;;;;;;16.57;15.67;;;;;;;;;;5045319;28;20573;-52
2022/04/17 11:14:12;;;;;;;10.57;9.95;;;;;;;;;;5046295;28;20021;-50
2022/04/17 11:16:50;;;;;;;9.50;8.85;;;;;;;;;;5045124;28;20033;-52
2022/04/17 11:19:18;;;;;;;9.05;8.45;;;;;;;;;;5046559;28;20036;-54
2022/04/17 11:21:47;;;;;;;8.70;8.10;;;;;;;;;;5046970;28;20032;-57
2022/04/17 11:24:13;;;;;;;11.07;10.38;;;;;;;;;;5046060;28;20799;-53
2022/04/17 11:26:50;;;;;;;9.93;9.32;;;;;;;;;;5046343;28;20066;-52
2022/04/17 11:29:16;;;;;;;10.70;10.05;;;;;;;;;;5046761;28;20450;-52
2022/04/17 11:31:42;;;;;;;14.80;13.95;;;;;;;;;;5046671;28;20107;-50
2022/04/17 11:34:07;;;;;;;14.20;13.40;;;;;;;;;;5045302;28;20812;-50
2022/04/17 11:36:32;;;;;;;12.90;12.13;;;;;;;;;;5046520;28;20090;-51
2022/04/17 11:38:58;;;;;;;11.95;11.15;;;;;;;;;;5049611;28;20029;-51
2022/04/17 11:41:24;;;;;;;8.88;8.32;;;;;;;;;;5049726;28;20055;-55
2022/04/17 11:44:00;;;;;;;19.85;18.75;;;;;;;;;;5050273;28;20028;-49
2022/04/17 11:46:27;;;;;;;19.80;18.70;;;;;;;;;;5049632;28;20028;-54
2022/04/17 11:48:55;;;;;;;13.95;13.05;;;;;;;;;;5050284;28;20391;-50
2022/04/17 11:51:20;;;;;;;17.52;16.52;;;;;;;;;;5049817;28;20131;-53
2022/04/17 11:53:46;;;;;;;22.75;21.55;;;;;;;;;;5049839;28;20033;-46
2022/04/17 11:56:11;;;;;;;22.90;21.27;;;;;;;;;;5050416;28;20547;-47
2022/04/17 11:58:37;;;;;;;21.90;20.70;;;;;;;;;;5049545;28;20029;-45
2022/04/17 12:01:05;;;;;;;23.15;21.95;;;;;;;;;;5050160;28;20029;-54
2022/04/17 12:03:38;;;;;;;19.85;18.75;;;;;;;;;;5049250;28;20043;-51
2022/04/17 12:06:06;;;;;;;23.95;22.55;;;;;;;;;;5049752;28;20663;-52
2022/04/17 12:08:36;;;;;;;22.02;20.50;;;;;;;;;;5049937;28;20028;-52
2022/04/17 12:11:05;;;;;;;19.25;18.15;;;;;;;;;;5049408;28;20050;-50
2022/04/17 12:13:31;;;;;;;20.63;19.52;;;;;;;;;;5048824;28;20037;-54
2022/04/17 12:16:04;;;;;;;21.95;20.75;;;;;;;;;;5050276;28;20032;-50
2022/04/17 12:18:30;;;;;;;16.83;15.93;;;;;;;;;;5047786;28;20193;-47
2022/04/17 12:20:57;;;;;;;15.18;14.32;;;;;;;;;;5050274;28;20021;-46
2022/04/17 12:23:24;;;;;;;17.33;16.33;;;;;;;;;;5048161;28;20039;-45
2022/04/17 12:25:50;;;;;;;19.08;17.92;;;;;;;;;;5049699;28;20017;-46
2022/04/17 12:28:15;;;;;;;16.00;15.02;;;;;;;;;;5048806;28;20540;-47
2022/04/17 12:30:41;;;;;;;15.32;14.43;;;;;;;;;;5049272;28;20021;-46
2022/04/17 12:33:22;;;;;;;17.77;16.80;;;;;;;;;;5053333;28;20052;-46
2022/04/17 12:36:00;;;;;;;;;;;;;;;;;;5050088;28;20639;-47
2022/04/17 12:38:25;;;;;;;14.48;13.68;;;;;;;;;;5049207;28;20374;-46
2022/04/17 12:40:50;;;;;;;15.95;15.05;;;;;;;;;;5050569;28;20041;-46
2022/04/17 12:43:20;;;;;;;15.00;14.10;;;;;;;;;;5045274;28;20120;-46
2022/04/17 12:45:54;;;;;;;17.50;16.43;;;;;;;;;;5064085;28;20355;-45
2022/04/17 12:48:24;;;;;;;17.75;16.77;;;;;;;;;;5047181;28;20310;-45
2022/04/17 12:50:56;;;;;;;;;;;;;;;;;;5049729;28;20027;-46
2022/04/17 12:53:22;;;;;;;16.20;15.20;;;;;;;;;;5049042;28;20281;-45
2022/04/17 12:55:51;;;;;;;17.38;16.35;;;;;;;;;;5049201;28;20024;-45
2022/04/17 12:58:16;;;;;;;18.63;17.50;;;;;;;;;;5047352;28;20043;-46
2022/04/17 13:00:41;;;;;;;20.63;19.52;;;;;;;;;;5049122;28;20355;-45
2022/04/17 13:03:11;;;;;;;16.67;15.68;;;;;;;;;;5047915;28;20752;-48
2022/04/17 13:05:37;;;;;;;18.45;17.35;;;;;;;;;;5047779;28;20116;-47
2022/04/17 13:08:04;;;;;;;16.70;15.80;;;;;;;;;;5049294;28;20506;-51
2022/04/17 13:10:30;;;;;;;20.08;18.98;;;;;;;;;;5048734;28;20044;-50
2022/04/17 13:12:56;;;;;;;17.05;16.05;;;;;;;;;;5048043;28;20029;-53
2022/04/17 13:15:34;;;;;;;28.33;26.83;;;;;;;;;;5046894;28;20079;-53
2022/04/17 13:18:01;;;;;;;26.13;24.77;;;;;;;;;;5047608;28;20041;-52
2022/04/17 13:20:29;;;;;;;33.60;31.85;;;;;;;;;;5048804;28;20344;-54
2022/04/17 13:22:55;;;;;;;28.92;27.38;;;;;;;;;;5047903;28;20017;-54
2022/04/17 13:25:22;;;;;;;17.60;16.60;;;;;;;;;;5048883;28;20124;-52
2022/04/17 13:27:48;;;;;;;24.98;23.63;;;;;;;;;;5047977;28;20036;-53
2022/04/17 13:30:15;;;;;;;20.27;19.17;;;;;;;;;;5039897;28;20029;-53
2022/04/17 13:32:41;;;;;;;19.00;17.60;;;;;;;;;;5047863;28;20328;-50
2022/04/17 13:35:08;;;;;;;30.60;28.98;;;;;;;;;;5048556;28;20094;-54
2022/04/17 13:40:18;;;;;;;34.38;32.58;;;;;;;;;;5047842;28;20051;-54
2022/04/17 13:42:44;;;;;;;31.05;29.40;;;;;;;;;;5046999;28;20025;-54
2022/04/17 13:45:10;;;;;;;28.10;26.60;;;;;;;;;;5050661;28;20025;-50
2022/04/17 13:47:37;;;;;;;31.63;29.80;;;;;;;;;;5047566;28;20040;-44
2022/04/17 13:50:07;;;;;;;27.38;25.92;;;;;;;;;;5047571;28;20767;-44
2022/04/17 13:52:34;;;;;;;22.38;21.17;;;;;;;;;;5044776;28;20024;-45
2022/04/17 13:55:00;;;;;;;22.20;21.00;;;;;;;;;;5046145;28;20080;-46
2022/04/17 13:57:26;;;;;;;24.02;22.67;;;;;;;;;;5046571;28;20087;-44
2022/04/17 13:59:52;;;;;;;30.35;28.77;;;;;;;;;;5046230;28;20033;-44
2022/04/17 14:02:17;;;;;;;26.70;25.30;;;;;;;;;;5045240;28;20085;-51
2022/04/17 14:04:42;;;;;;;27.88;26.42;;;;;;;;;;5047280;28;20047;-51
2022/04/17 14:07:09;;;;;;;30.85;29.25;;;;;;;;;;5048741;28;20033;-45
2022/04/17 14:09:38;;;;;;;32.83;31.13;;;;;;;;;;5047558;28;20029;-45
2022/04/17 14:12:06;;;;;;;34.55;32.78;;;;;;;;;;5045723;28;20041;-45
2022/04/17 14:14:32;;;;;;;29.20;27.70;;;;;;;;;;5047493;28;20029;-45
2022/04/17 14:16:58;;;;;;;34.22;32.42;;;;;;;;;;5047222;28;20029;-45
2022/04/17 14:19:23;;;;;;;33.15;31.33;;;;;;;;;;5046671;28;20087;-45
2022/04/17 14:21:49;;;;;;;39.30;37.28;;;;;;;;;;5046785;28;20021;-45
2022/04/17 14:24:14;;;;;;;43.70;41.50;;;;;;;;;;5047510;28;20102;-45
2022/04/17 14:26:41;;;;;;;32.97;31.27;;;;;;;;;;5046678;28;20037;-46
2022/04/17 14:29:06;;;;;;;42.80;40.63;;;;;;;;;;5046442;28;20029;-46
2022/04/17 14:31:32;;;;;;;46.60;44.25;;;;;;;;;;5047490;28;20390;-45
2022/04/17 14:33:57;;;;;;;46.65;44.28;;;;;;;;;;5045842;28;20080;-45
2022/04/17 14:36:22;;;;;;;46.72;44.33;;;;;;;;;;5047245;28;20044;-46
2022/04/17 14:38:48;;;;;;;53.35;50.65;;;;;;;;;;5046905;28;20037;-45
2022/04/17 14:41:13;;;;;;;48.25;45.83;;;;;;;;;;5046921;28;20020;-47
2022/04/17 14:43:40;;;;;;;44.47;42.22;;;;;;;;;;5046616;28;20098;-47
2022/04/17 14:46:05;;;;;;;41.95;39.80;;;;;;;;;;5047175;28;20028;-47
2022/04/17 14:48:30;;;;;;;43.22;41.03;;;;;;;;;;5046012;28;20036;-46
2022/04/17 14:50:57;;;;;;;39.88;37.83;;;;;;;;;;5047214;28;20035;-46